Latest Weather Observations for Bedout Island

IDW60801

Issued at 12:03 am WST Thursday 8 December 2016 (issued every 30 minutes, with the page automatically refreshed every 10 minutes)

About weather observations | Map of weather stations | Latest weather observations for WA | Other Formats
Station Details ID: 004100 Name: BEDOUT ISLAND Lat: -19.59 Lon: 119.10 Height: 8.6 m
Data from the previous 72 hours. | See also: Recent months at Bedout Island
Date/Time
WST
Temp
°C
App
Temp
°C
Dew
Point
°C
Rel
Hum
%
Delta-T
°C
Wind Press
QNH
hPa
Press
MSL
hPa
Rain since
9am
mm
Dir  Spd
km/h
Gust
km/h
Spd
kts
Gust
kts
07/11:30pm 28.7 31.5 24.9 80 2.7 NNE 19 20 10 11 1009.1 - -
07/11:00pm 28.6 31.7 24.8 80 2.7 NNE 17 19 9 10 1009.4 - -
07/10:30pm 28.8 31.8 24.6 78 2.9 NNE 17 19 9 10 1009.8 - -
07/10:00pm 28.7 32.3 24.3 77 3.1 NNE 13 15 7 8 1009.9 - -
07/09:30pm 28.6 32.5 24.2 77 3.1 NNE 11 13 6 7 1009.8 - -
07/09:00pm 28.7 33.2 24.0 76 3.3 NNE 7 9 4 5 1009.6 1009.5 -
07/08:30pm 28.7 33.3 23.8 75 3.4 NNE 6 7 3 4 1009.3 - -
07/08:00pm 28.7 32.6 23.6 74 3.5 NNE 9 11 5 6 1009.0 - -
07/07:30pm 28.7 33.3 23.8 75 3.4 NNE 6 7 3 4 1008.8 - -
07/07:00pm 28.9 33.4 23.6 73 3.6 NNE 6 7 3 4 1008.5 - -
07/06:30pm 29.3 33.1 23.5 71 4.0 NNE 9 11 5 6 1008.3 - -
07/06:00pm 29.6 33.8 23.1 68 4.5 NNE 6 7 3 4 1007.9 1007.8 -
07/05:30pm 30.2 34.6 23.4 67 4.7 NNE 6 7 3 4 1007.9 - -
07/05:00pm 30.4 34.5 23.3 66 4.9 NNE 7 9 4 5 1007.7 - -
07/04:30pm 31.3 34.9 23.1 61 5.6 NNE 9 11 5 6 1007.6 - -
07/04:00pm 31.4 35.4 23.8 64 5.3 NNE 9 11 5 6 1007.7 - -
07/03:30pm 31.0 33.8 22.3 60 5.9 NNE 11 13 6 7 1007.8 - -
07/03:00pm 31.3 34.6 22.6 60 6.0 NNE 9 13 5 7 1008.0 1007.9 -
07/02:30pm 31.2 35.2 23.8 64 5.1 NNE 9 11 5 6 1008.4 - -
07/02:00pm 31.2 35.3 24.6 68 4.6 NNE 11 13 6 7 1008.7 - -
07/01:30pm 31.4 36.0 24.8 68 4.6 NNE 9 11 5 6 1009.0 - -
07/01:00pm 30.9 35.0 24.5 68 4.5 NNE 11 13 6 7 1009.5 - -
07/12:30pm 31.3 35.5 24.7 68 4.6 NNE 11 13 6 7 1010.0 - -
07/12:00pm 31.3 35.5 24.7 68 4.6 NNE 11 13 6 7 1010.1 1010.0 -
07/11:30am 31.6 35.6 25.0 68 4.7 NNE 13 15 7 8 1010.3 - -
07/11:00am 30.8 34.0 24.9 71 4.1 NNE 17 20 9 11 1010.4 - -
07/10:30am 30.5 33.4 25.1 73 3.8 NNE 19 20 10 11 1010.6 - -
07/10:00am 30.4 32.9 24.8 72 3.9 NNE 20 24 11 13 1010.6 - -
07/09:30am 30.0 33.3 25.1 75 3.4 NNE 17 19 9 10 1010.9 - -
07/09:00am 29.6 32.3 24.2 73 3.8 NNE 17 19 9 10 1010.8 1010.7 -
07/08:30am 29.2 32.1 24.5 76 3.3 NNE 17 17 9 9 1010.8 - -
07/08:00am 29.1 32.1 24.6 76 3.1 NNE 17 20 9 11 1010.2 - -
07/07:30am 28.8 30.7 25.0 80 2.7 NNE 24 26 13 14 1009.9 - -
07/07:00am 28.6 33.9 25.0 81 2.5 NNE 6 9 3 5 1010.7 - -
07/06:30am 28.3 33.5 25.1 83 2.2 NNE 7 9 4 5 1010.8 - -
07/06:00am 27.7 33.6 24.7 84 2.1 NNE 2 7 1 4 1010.5 1010.4 -
07/05:30am 27.4 33.5 24.5 84 2.0 CALM 0 0 0 0 1010.1 - -
07/05:00am 27.4 33.5 24.5 84 2.0 CALM 0 0 0 0 1009.6 - -
07/04:30am 27.4 33.5 24.5 84 2.0 CALM 0 6 0 3 1009.2 - -
07/03:30am 27.5 33.6 24.5 84 2.1 CALM 0 0 0 0 1008.7 - -
07/03:00am 27.7 34.1 24.9 85 2.0 CALM 0 4 0 2 1008.8 1008.7 -
07/02:30am 27.4 33.5 24.5 84 2.0 CALM 0 0 0 0 1008.5 - -
07/02:00am 27.5 33.5 24.3 83 2.2 CALM 0 0 0 0 1008.6 - -
07/01:00am 27.6 32.5 24.4 83 2.2 NNE 6 7 3 4 1009.0 - -
07/12:30am 27.6 32.0 24.4 83 2.2 NNE 9 9 5 5 1009.1 - -
07/12:00am 27.5 32.2 24.3 83 2.2 NNE 7 9 4 5 1009.1 1009.0 -
 
Date/Time
WST
Temp
°C
App
Temp
°C
Dew
Point
°C
Rel
Hum
%
Delta-T
°C
Wind Press
QNH
hPa
Press
MSL
hPa
Rain since
9am
mm
Dir  Spd
km/h
Gust
km/h
Spd
kts
Gust
kts
06/11:00pm 27.7 30.1 24.3 82 2.4 NNE 19 22 10 12 1009.5 - -
06/10:30pm 27.7 29.7 24.5 83 2.2 NNE 22 26 12 14 1009.7 - -
06/10:00pm 27.6 28.7 24.4 83 2.2 NNE 26 32 14 17 1009.5 - -
06/09:30pm 27.6 28.7 24.4 83 2.2 NNE 26 32 14 17 1009.7 - -
06/09:00pm 27.5 28.2 24.3 83 2.2 NNE 28 32 15 17 1009.8 1009.7 -
06/08:30pm 27.5 28.1 24.1 82 2.3 NNE 28 30 15 16 1009.8 - -
06/07:30pm 27.6 28.8 23.8 80 2.6 NNE 24 28 13 15 1009.7 - -
06/07:00pm 27.5 29.0 23.7 80 2.6 NNE 22 24 12 13 1009.4 - -
06/06:30pm 27.5 29.3 23.3 78 2.9 NNE 19 22 10 12 1009.2 - -
06/06:00pm 27.7 29.5 23.5 78 2.9 NNE 20 24 11 13 1008.9 1008.8 -
06/05:30pm 28.0 28.6 23.4 76 3.2 NNE 26 28 14 15 1008.7 - -
06/05:00pm 28.5 28.8 23.6 75 3.4 NNE 28 30 15 16 1008.5 - -
06/04:30pm 28.8 28.6 24.1 76 3.3 NNE 32 35 17 19 1008.6 - -
06/04:00pm 29.0 28.9 24.3 76 3.3 NNE 32 35 17 19 1008.4 - -
06/03:30pm 30.0 29.4 24.4 72 3.9 NNE 35 41 19 22 1008.3 - -
06/03:00pm 30.0 30.7 25.5 77 3.2 WNW 32 35 17 19 1008.4 1008.3 -
06/02:30pm 30.6 31.4 25.0 72 3.9 WNW 30 33 16 18 1008.4 - -
06/02:00pm 31.7 32.8 25.5 69 4.4 WNW 30 32 16 17 1008.7 - -
06/01:00pm 32.8 37.0 25.9 67 4.9 W 15 20 8 11 1009.4 - -
06/12:30pm 32.2 36.1 24.3 63 5.5 W 11 15 6 8 1009.4 - -
06/10:00am 30.2 34.4 24.1 70 4.2 W 9 11 5 6 1010.6 - -
06/09:30am 30.1 34.1 23.8 69 4.4 W 9 11 5 6 1010.7 - -
06/09:00am 30.4 35.4 24.8 72 3.9 W 7 9 4 5 1010.8 - -
06/08:30am 29.4 33.5 24.0 72 3.7 W 9 13 5 7 1010.7 - -
06/07:30am 28.9 32.2 24.5 77 3.1 W 15 19 8 10 1010.5 - -
06/07:00am 28.5 31.7 24.3 78 2.9 W 15 20 8 11 1010.2 - -
06/06:30am 27.8 30.9 24.2 81 2.5 W 15 19 8 10 1010.0 - -
06/06:00am 27.3 29.7 24.2 83 2.1 W 19 22 10 12 1009.8 1009.7 -
06/05:30am 27.1 29.8 24.2 84 2.0 W 17 20 9 11 1009.7 - -
06/05:00am 26.9 29.6 24.2 85 1.9 W 17 20 9 11 1009.4 - -
06/03:30am 27.1 29.7 24.6 86 1.7 W 19 20 10 11 1009.0 - -
06/03:00am 27.0 29.3 24.5 86 1.7 W 20 26 11 14 1008.9 1008.8 -
06/12:30am 27.4 30.2 25.0 87 1.7 W 19 22 10 12 1008.8 - -
06/12:00am 27.3 30.2 25.1 88 1.5 W 19 22 10 12 1008.7 1008.6 -
 
Date/Time
WST
Temp
°C
App
Temp
°C
Dew
Point
°C
Rel
Hum
%
Delta-T
°C
Wind Press
QNH
hPa
Press
MSL
hPa
Rain since
9am
mm
Dir  Spd
km/h
Gust
km/h
Spd
kts
Gust
kts
05/11:00pm 27.2 30.2 24.6 86 1.8 W 17 20 9 11 1009.0 - -
05/10:00pm 27.2 29.6 24.3 84 2.0 W 19 20 10 11 1009.2 - -
05/09:00pm 27.3 29.7 24.2 83 2.1 W 19 22 10 12 1009.2 1009.1 -
05/08:30pm 27.3 29.7 24.2 83 2.1 W 19 22 10 12 1009.0 - -
05/08:00pm 27.3 29.8 24.4 84 2.0 W 19 26 10 14 1008.6 - -
05/07:30pm 27.4 28.9 24.3 83 2.1 W 24 28 13 15 1008.5 - -
05/07:00pm 27.6 29.6 23.6 79 2.7 W 19 20 10 11 1008.2 - -
05/06:30pm 27.8 29.7 23.4 77 3.0 W 19 24 10 13 1007.9 - -
05/06:00pm 28.7 30.8 23.8 75 3.4 W 19 22 10 12 1007.8 1007.7 -
05/05:30pm 28.9 30.7 23.6 73 3.6 W 20 26 11 14 1007.8 - -
05/05:00pm 29.5 31.4 23.4 69 4.2 W 19 26 10 14 1007.6 - -
05/04:00pm 30.5 32.1 22.9 64 5.2 W 19 24 10 13 1007.5 - -
05/03:30pm 30.1 31.5 22.5 63 5.2 W 19 24 10 13 1007.7 - -
05/03:00pm 30.6 32.3 23.0 64 5.2 W 19 22 10 12 1007.8 1007.7 -
05/01:30pm 30.7 32.5 22.6 62 5.5 W 17 20 9 11 1008.5 - -
05/01:00pm 30.2 32.3 22.4 63 5.3 W 15 20 8 11 1008.7 - -
05/12:30pm 30.5 32.9 22.9 64 5.2 W 15 17 8 9 1008.9 - -
05/12:00pm 30.0 32.7 22.9 65 4.9 W 13 19 7 10 1009.3 1009.2 -
05/11:30am 29.7 32.7 22.7 66 4.8 W 11 13 6 7 1009.5 - -
05/11:00am 30.4 33.1 22.8 64 5.2 W 13 17 7 9 1009.7 - -
05/10:00am 29.3 31.4 22.5 67 4.6 W 15 20 8 11 1009.9 - -
05/09:30am 29.4 31.0 22.9 68 4.4 W 19 22 10 12 1010.0 - -
05/09:00am 29.3 30.9 23.3 70 4.1 W 20 24 11 13 1009.9 1009.8 -
05/08:30am 29.1 30.6 23.1 70 4.1 W 20 24 11 13 1009.7 - -
05/08:00am 27.8 28.7 22.7 74 3.5 W 22 26 12 14 1009.5 - -
05/07:30am 27.7 28.7 22.9 75 3.3 W 22 28 12 15 1009.3 - -
05/07:00am 27.2 27.5 23.0 78 2.9 W 26 32 14 17 1009.0 - -
05/06:30am 27.0 26.7 23.3 80 2.5 W 30 33 16 18 1009.0 - -
05/06:00am 26.8 26.5 23.3 81 2.4 W 30 33 16 18 1008.9 1008.8 -
05/05:30am 26.7 27.4 23.6 83 2.1 W 26 32 14 17 1008.8 - -
05/05:00am 26.6 27.5 23.3 82 2.3 W 24 30 13 16 1008.5 - -
05/04:30am 26.6 28.0 23.5 83 2.1 W 22 28 12 15 1008.4 - -
05/03:30am 26.7 27.3 23.4 82 2.3 W 26 30 14 16 1008.2 - -
05/02:30am 26.8 27.3 23.9 84 2.0 W 28 33 15 18 1008.0 - -
05/01:30am 26.7 27.4 23.6 83 2.1 W 26 32 14 17 1007.8 - -

Other Formats:

Comma delimited format used in spreadsheet applications
http://www.bom.gov.au/fwo/IDW60801/IDW60801.94310.axf

JavaScript Object Notation format (JSON) in row-major order
http://www.bom.gov.au/fwo/IDW60801/IDW60801.94310.json